sensor_id;sensor_type;location;lat;lon;timestamp;pressure;altitude;pressure_sealevel;temperature
75428;BMP280;64008;55.612;37.698;2023-08-30T00:01:04;99514.44;;;17.89
75428;BMP280;64008;55.612;37.698;2023-08-30T00:03:29;99512.53;;;17.90
75428;BMP280;64008;55.612;37.698;2023-08-30T00:05:55;99508.19;;;17.99
75428;BMP280;64008;55.612;37.698;2023-08-30T00:08:20;99506.56;;;17.98
75428;BMP280;64008;55.612;37.698;2023-08-30T00:10:47;99502.34;;;17.97
75428;BMP280;64008;55.612;37.698;2023-08-30T00:13:12;99505.81;;;17.98
75428;BMP280;64008;55.612;37.698;2023-08-30T00:15:38;99504.19;;;17.97
75428;BMP280;64008;55.612;37.698;2023-08-30T00:18:04;99512.63;;;18.09
75428;BMP280;64008;55.612;37.698;2023-08-30T00:20:29;99507.66;;;18.45
75428;BMP280;64008;55.612;37.698;2023-08-30T00:22:55;99510.69;;;18.39
75428;BMP280;64008;55.612;37.698;2023-08-30T00:25:20;99510.59;;;18.44
75428;BMP280;64008;55.612;37.698;2023-08-30T00:27:45;99497.75;;;18.46
75428;BMP280;64008;55.612;37.698;2023-08-30T00:30:11;99510.50;;;18.30
75428;BMP280;64008;55.612;37.698;2023-08-30T00:32:37;99512.28;;;18.58
75428;BMP280;64008;55.612;37.698;2023-08-30T00:35:03;99513.13;;;18.35
75428;BMP280;64008;55.612;37.698;2023-08-30T00:37:28;99507.00;;;18.53
75428;BMP280;64008;55.612;37.698;2023-08-30T00:39:54;99506.00;;;18.25
75428;BMP280;64008;55.612;37.698;2023-08-30T00:42:19;99513.06;;;18.16
75428;BMP280;64008;55.612;37.698;2023-08-30T00:44:45;99519.22;;;18.17
75428;BMP280;64008;55.612;37.698;2023-08-30T00:47:10;99509.94;;;18.09
75428;BMP280;64008;55.612;37.698;2023-08-30T00:49:36;99513.13;;;18.11
75428;BMP280;64008;55.612;37.698;2023-08-30T00:52:04;99528.78;;;18.23
75428;BMP280;64008;55.612;37.698;2023-08-30T00:54:31;99534.44;;;18.16
75428;BMP280;64008;55.612;37.698;2023-08-30T00:56:57;99530.25;;;18.10
75428;BMP280;64008;55.612;37.698;2023-08-30T00:59:23;99534.44;;;18.16
75428;BMP280;64008;55.612;37.698;2023-08-30T01:01:49;99538.00;;;18.35
75428;BMP280;64008;55.612;37.698;2023-08-30T01:04:15;99530.13;;;18.20
75428;BMP280;64008;55.612;37.698;2023-08-30T01:06:41;99536.66;;;18.09
75428;BMP280;64008;55.612;37.698;2023-08-30T01:09:07;99534.69;;;18.20
75428;BMP280;64008;55.612;37.698;2023-08-30T01:12:04;99534.97;;;18.18
75428;BMP280;64008;55.612;37.698;2023-08-30T01:14:54;99541.47;;;18.36
75428;BMP280;64008;55.612;37.698;2023-08-30T01:17:23;99537.03;;;18.26
75428;BMP280;64008;55.612;37.698;2023-08-30T01:20:05;99536.97;;;18.07
75428;BMP280;64008;55.612;37.698;2023-08-30T01:23:06;99545.22;;;18.11
75428;BMP280;64008;55.612;37.698;2023-08-30T01:28:30;99541.59;;;18.02
75428;BMP280;64008;55.612;37.698;2023-08-30T01:30:57;99535.09;;;18.08
75428;BMP280;64008;55.612;37.698;2023-08-30T01:33:24;99539.19;;;18.24
75428;BMP280;64008;55.612;37.698;2023-08-30T01:35:54;99546.56;;;18.56
75428;BMP280;64008;55.612;37.698;2023-08-30T01:38:21;99538.69;;;18.22
75428;BMP280;64008;55.612;37.698;2023-08-30T01:40:47;99544.75;;;18.04
75428;BMP280;64008;55.612;37.698;2023-08-30T01:43:14;99541.91;;;18.19
75428;BMP280;64008;55.612;37.698;2023-08-30T01:45:42;99541.91;;;18.19
75428;BMP280;64008;55.612;37.698;2023-08-30T01:48:15;99540.13;;;18.33
75428;BMP280;64008;55.612;37.698;2023-08-30T01:50:41;99545.47;;;18.33
75428;BMP280;64008;55.612;37.698;2023-08-30T01:53:08;99548.22;;;18.28
75428;BMP280;64008;55.612;37.698;2023-08-30T01:55:35;99550.28;;;18.36
75428;BMP280;64008;55.612;37.698;2023-08-30T01:58:01;99559.28;;;18.22
75428;BMP280;64008;55.612;37.698;2023-08-30T02:00:26;99548.78;;;18.25
75428;BMP280;64008;55.612;37.698;2023-08-30T02:02:52;99545.00;;;18.07
75428;BMP280;64008;55.612;37.698;2023-08-30T02:05:17;99553.50;;;18.33
75428;BMP280;64008;55.612;37.698;2023-08-30T02:10:23;99544.09;;;18.17
75428;BMP280;64008;55.612;37.698;2023-08-30T02:12:52;99558.00;;;18.14
75428;BMP280;64008;55.612;37.698;2023-08-30T02:15:20;99558.22;;;18.18
75428;BMP280;64008;55.612;37.698;2023-08-30T02:17:46;99558.06;;;18.09
75428;BMP280;64008;55.612;37.698;2023-08-30T02:20:13;99552.84;;;18.23
75428;BMP280;64008;55.612;37.698;2023-08-30T02:22:39;99554.97;;;18.26
75428;BMP280;64008;55.612;37.698;2023-08-30T02:25:05;99544.34;;;18.15
75428;BMP280;64008;55.612;37.698;2023-08-30T02:27:32;99548.97;;;18.10
75428;BMP280;64008;55.612;37.698;2023-08-30T02:29:58;99548.72;;;18.11
75428;BMP280;64008;55.612;37.698;2023-08-30T02:32:23;99549.59;;;18.02
75428;BMP280;64008;55.612;37.698;2023-08-30T02:34:50;99543.22;;;17.98
75428;BMP280;64008;55.612;37.698;2023-08-30T02:37:17;99551.72;;;18.00
75428;BMP280;64008;55.612;37.698;2023-08-30T02:39:42;99565.16;;;18.19
75428;BMP280;64008;55.612;37.698;2023-08-30T02:42:08;99574.88;;;18.14
75428;BMP280;64008;55.612;37.698;2023-08-30T02:44:33;99572.84;;;18.01
75428;BMP280;64008;55.612;37.698;2023-08-30T02:46:59;99574.47;;;18.26
75428;BMP280;64008;55.612;37.698;2023-08-30T02:49:24;99567.78;;;18.00
75428;BMP280;64008;55.612;37.698;2023-08-30T02:51:50;99565.16;;;17.94
75428;BMP280;64008;55.612;37.698;2023-08-30T02:54:15;99571.69;;;17.83
75428;BMP280;64008;55.612;37.698;2023-08-30T02:56:42;99565.00;;;17.86
75428;BMP280;64008;55.612;37.698;2023-08-30T02:59:08;99570.69;;;18.03
75428;BMP280;64008;55.612;37.698;2023-08-30T03:01:35;99573.44;;;17.93
75428;BMP280;64008;55.612;37.698;2023-08-30T03:04:00;99563.28;;;17.95
75428;BMP280;64008;55.612;37.698;2023-08-30T03:06:26;99564.94;;;17.91
75428;BMP280;64008;55.612;37.698;2023-08-30T03:08:53;99565.13;;;18.24
75428;BMP280;64008;55.612;37.698;2023-08-30T03:11:19;99569.44;;;17.96
75428;BMP280;64008;55.612;37.698;2023-08-30T03:13:45;99562.16;;;18.01
75428;BMP280;64008;55.612;37.698;2023-08-30T03:16:15;99556.47;;;18.08
75428;BMP280;64008;55.612;37.698;2023-08-30T03:18:41;99560.72;;;18.09
75428;BMP280;64008;55.612;37.698;2023-08-30T03:21:07;99559.22;;;18.03
75428;BMP280;64008;55.612;37.698;2023-08-30T03:23:33;99562.75;;;18.22
75428;BMP280;64008;55.612;37.698;2023-08-30T03:26:00;99562.56;;;18.13
75428;BMP280;64008;55.612;37.698;2023-08-30T03:28:25;99561.44;;;18.20
75428;BMP280;64008;55.612;37.698;2023-08-30T03:30:52;99565.81;;;18.10
75428;BMP280;64008;55.612;37.698;2023-08-30T03:33:18;99576.06;;;17.98
75428;BMP280;64008;55.612;37.698;2023-08-30T03:35:43;99572.16;;;17.90
75428;BMP280;64008;55.612;37.698;2023-08-30T03:38:09;99576.41;;;17.91
75428;BMP280;64008;55.612;37.698;2023-08-30T03:40:34;99573.31;;;18.08
75428;BMP280;64008;55.612;37.698;2023-08-30T03:43:00;99576.38;;;18.21
75428;BMP280;64008;55.612;37.698;2023-08-30T03:45:26;99575.72;;;18.10
75428;BMP280;64008;55.612;37.698;2023-08-30T03:47:51;99574.22;;;18.23
75428;BMP280;64008;55.612;37.698;2023-08-30T03:50:17;99563.19;;;18.05
75428;BMP280;64008;55.612;37.698;2023-08-30T03:52:42;99567.97;;;18.08
75428;BMP280;64008;55.612;37.698;2023-08-30T03:55:08;99564.75;;;18.35
75428;BMP280;64008;55.612;37.698;2023-08-30T03:57:33;99564.84;;;18.49
75428;BMP280;64008;55.612;37.698;2023-08-30T03:59:59;99567.31;;;18.22
75428;BMP280;64008;55.612;37.698;2023-08-30T04:02:25;99571.16;;;18.10
75428;BMP280;64008;55.612;37.698;2023-08-30T04:04:50;99567.78;;;18.24
75428;BMP280;64008;55.612;37.698;2023-08-30T04:07:16;99565.69;;;18.21
75428;BMP280;64008;55.612;37.698;2023-08-30T04:09:41;99568.91;;;18.18
75428;BMP280;64008;55.612;37.698;2023-08-30T04:12:07;99574.09;;;18.09
75428;BMP280;64008;55.612;37.698;2023-08-30T04:14:32;99575.03;;;18.23
75428;BMP280;64008;55.612;37.698;2023-08-30T04:16:58;99575.88;;;18.19
75428;BMP280;64008;55.612;37.698;2023-08-30T04:19:23;99571.50;;;18.28
75428;BMP280;64008;55.612;37.698;2023-08-30T04:21:49;99570.47;;;18.24
75428;BMP280;64008;55.612;37.698;2023-08-30T04:24:15;99565.13;;;18.24
75428;BMP280;64008;55.612;37.698;2023-08-30T04:26:41;99568.28;;;18.31
75428;BMP280;64008;55.612;37.698;2023-08-30T04:29:06;99575.25;;;18.27
75428;BMP280;64008;55.612;37.698;2023-08-30T04:31:32;99576.44;;;18.40
75428;BMP280;64008;55.612;37.698;2023-08-30T04:33:57;99575.19;;;18.32
75428;BMP280;64008;55.612;37.698;2023-08-30T04:36:23;99575.59;;;18.20
75428;BMP280;64008;55.612;37.698;2023-08-30T04:38:49;99573.44;;;18.22
75428;BMP280;64008;55.612;37.698;2023-08-30T04:41:14;99568.34;;;18.26
75428;BMP280;64008;55.612;37.698;2023-08-30T04:43:40;99573.88;;;18.53
75428;BMP280;64008;55.612;37.698;2023-08-30T04:46:05;99573.06;;;18.53
75428;BMP280;64008;55.612;37.698;2023-08-30T04:48:31;99567.13;;;18.56
75428;BMP280;64008;55.612;37.698;2023-08-30T04:51:01;99573.75;;;18.64
75428;BMP280;64008;55.612;37.698;2023-08-30T04:53:28;99581.16;;;19.10
75428;BMP280;64008;55.612;37.698;2023-08-30T04:55:54;99591.22;;;19.18
75428;BMP280;64008;55.612;37.698;2023-08-30T04:58:20;99593.03;;;19.22
75428;BMP280;64008;55.612;37.698;2023-08-30T05:00:45;99591.22;;;18.99
75428;BMP280;64008;55.612;37.698;2023-08-30T05:03:11;99594.69;;;18.99
75428;BMP280;64008;55.612;37.698;2023-08-30T05:05:36;99595.28;;;19.15
75428;BMP280;64008;55.612;37.698;2023-08-30T05:08:02;99590.94;;;19.19
75428;BMP280;64008;55.612;37.698;2023-08-30T05:10:28;99594.56;;;19.10
75428;BMP280;64008;55.612;37.698;2023-08-30T05:12:54;99591.41;;;19.40
75428;BMP280;64008;55.612;37.698;2023-08-30T05:15:20;99593.25;;;19.59
75428;BMP280;64008;55.612;37.698;2023-08-30T05:17:45;99593.47;;;19.62
75428;BMP280;64008;55.612;37.698;2023-08-30T05:20:11;99592.81;;;19.71
75428;BMP280;64008;55.612;37.698;2023-08-30T05:22:37;99592.81;;;19.71
75428;BMP280;64008;55.612;37.698;2023-08-30T05:25:02;99598.38;;;19.74
75428;BMP280;64008;55.612;37.698;2023-08-30T05:27:28;99583.34;;;19.73
75428;BMP280;64008;55.612;37.698;2023-08-30T05:29:54;99583.34;;;19.73
75428;BMP280;64008;55.612;37.698;2023-08-30T05:32:21;99589.44;;;19.79
75428;BMP280;64008;55.612;37.698;2023-08-30T05:34:47;99574.25;;;19.88
75428;BMP280;64008;55.612;37.698;2023-08-30T05:37:13;99570.69;;;19.46
75428;BMP280;64008;55.612;37.698;2023-08-30T05:39:38;99579.25;;;19.48
75428;BMP280;64008;55.612;37.698;2023-08-30T05:42:04;99579.66;;;19.55
75428;BMP280;64008;55.612;37.698;2023-08-30T05:44:30;99570.06;;;19.35
75428;BMP280;64008;55.612;37.698;2023-08-30T05:46:55;99572.50;;;19.32
75428;BMP280;64008;55.612;37.698;2023-08-30T05:49:21;99579.63;;;19.22
75428;BMP280;64008;55.612;37.698;2023-08-30T05:51:46;99576.63;;;19.43
75428;BMP280;64008;55.612;37.698;2023-08-30T05:54:13;99576.91;;;19.41
75428;BMP280;64008;55.612;37.698;2023-08-30T05:56:38;99581.00;;;19.85
75428;BMP280;64008;55.612;37.698;2023-08-30T05:59:04;99583.25;;;19.64
75428;BMP280;64008;55.612;37.698;2023-08-30T06:01:29;99580.16;;;19.57
75428;BMP280;64008;55.612;37.698;2023-08-30T06:03:55;99595.00;;;19.50
75428;BMP280;64008;55.612;37.698;2023-08-30T06:06:20;99594.16;;;19.35
75428;BMP280;64008;55.612;37.698;2023-08-30T06:08:46;99592.28;;;19.17
75428;BMP280;64008;55.612;37.698;2023-08-30T06:11:12;99610.56;;;19.34
75428;BMP280;64008;55.612;37.698;2023-08-30T06:13:37;99611.53;;;19.38
75428;BMP280;64008;55.612;37.698;2023-08-30T06:16:03;99614.41;;;19.41
75428;BMP280;64008;55.612;37.698;2023-08-30T06:18:30;99614.22;;;19.38
75428;BMP280;64008;55.612;37.698;2023-08-30T06:20:56;99625.00;;;19.33
75428;BMP280;64008;55.612;37.698;2023-08-30T06:23:21;99623.00;;;19.25
75428;BMP280;64008;55.612;37.698;2023-08-30T06:25:55;99607.31;;;19.32
75428;BMP280;64008;55.612;37.698;2023-08-30T06:28:20;99613.09;;;19.58
75428;BMP280;64008;55.612;37.698;2023-08-30T06:30:46;99601.84;;;19.42
75428;BMP280;64008;55.612;37.698;2023-08-30T06:33:11;99606.25;;;19.33
75428;BMP280;64008;55.612;37.698;2023-08-30T06:35:37;99601.41;;;19.68
75428;BMP280;64008;55.612;37.698;2023-08-30T06:38:05;99606.31;;;19.47
75428;BMP280;64008;55.612;37.698;2023-08-30T06:40:30;99597.72;;;19.63
75428;BMP280;64008;55.612;37.698;2023-08-30T06:42:56;99609.47;;;19.68
75428;BMP280;64008;55.612;37.698;2023-08-30T06:45:22;99608.16;;;19.65
75428;BMP280;64008;55.612;37.698;2023-08-30T06:47:48;99613.84;;;19.77
75428;BMP280;64008;55.612;37.698;2023-08-30T06:50:14;99612.94;;;19.68
75428;BMP280;64008;55.612;37.698;2023-08-30T06:52:40;99606.69;;;19.73
75428;BMP280;64008;55.612;37.698;2023-08-30T06:55:06;99603.50;;;20.17
75428;BMP280;64008;55.612;37.698;2023-08-30T06:57:32;99601.41;;;20.28
75428;BMP280;64008;55.612;37.698;2023-08-30T06:59:58;99598.59;;;20.47
75428;BMP280;64008;55.612;37.698;2023-08-30T07:02:30;99609.50;;;20.50
75428;BMP280;64008;55.612;37.698;2023-08-30T07:04:56;99616.94;;;19.84
75428;BMP280;64008;55.612;37.698;2023-08-30T07:07:21;99623.44;;;20.11
75428;BMP280;64008;55.612;37.698;2023-08-30T07:09:47;99615.91;;;20.13
75428;BMP280;64008;55.612;37.698;2023-08-30T07:12:12;99610.22;;;20.42
75428;BMP280;64008;55.612;37.698;2023-08-30T07:14:38;99603.66;;;20.35
75428;BMP280;64008;55.612;37.698;2023-08-30T07:17:03;99609.19;;;20.80
75428;BMP280;64008;55.612;37.698;2023-08-30T07:19:29;99609.22;;;20.24
75428;BMP280;64008;55.612;37.698;2023-08-30T07:21:54;99619.88;;;20.43
75428;BMP280;64008;55.612;37.698;2023-08-30T07:24:20;99612.53;;;20.35
75428;BMP280;64008;55.612;37.698;2023-08-30T07:26:47;99615.88;;;20.55
75428;BMP280;64008;55.612;37.698;2023-08-30T07:29:13;99620.97;;;20.42
75428;BMP280;64008;55.612;37.698;2023-08-30T07:31:38;99618.75;;;20.17
75428;BMP280;64008;55.612;37.698;2023-08-30T07:34:06;99627.50;;;20.08
75428;BMP280;64008;55.612;37.698;2023-08-30T07:36:33;99614.69;;;20.47
75428;BMP280;64008;55.612;37.698;2023-08-30T07:38:58;99613.81;;;20.65
75428;BMP280;64008;55.612;37.698;2023-08-30T07:41:24;99624.63;;;20.60
75428;BMP280;64008;55.612;37.698;2023-08-30T07:43:49;99624.25;;;20.39
75428;BMP280;64008;55.612;37.698;2023-08-30T07:46:15;99618.81;;;20.81
75428;BMP280;64008;55.612;37.698;2023-08-30T07:48:40;99616.41;;;20.43
75428;BMP280;64008;55.612;37.698;2023-08-30T07:51:06;99611.94;;;20.38
75428;BMP280;64008;55.612;37.698;2023-08-30T07:53:31;99612.44;;;20.13
75428;BMP280;64008;55.612;37.698;2023-08-30T07:55:57;99611.09;;;20.79
75428;BMP280;64008;55.612;37.698;2023-08-30T07:58:23;99614.56;;;20.80
75428;BMP280;64008;55.612;37.698;2023-08-30T08:00:54;99624.53;;;20.65
75428;BMP280;64008;55.612;37.698;2023-08-30T08:03:23;99616.97;;;20.67
75428;BMP280;64008;55.612;37.698;2023-08-30T08:05:48;99624.44;;;20.57
75428;BMP280;64008;55.612;37.698;2023-08-30T08:08:14;99627.59;;;20.72
75428;BMP280;64008;55.612;37.698;2023-08-30T08:10:41;99641.72;;;20.64
75428;BMP280;64008;55.612;37.698;2023-08-30T08:13:07;99636.84;;;20.25
75428;BMP280;64008;55.612;37.698;2023-08-30T08:15:32;99640.16;;;20.36
75428;BMP280;64008;55.612;37.698;2023-08-30T08:17:59;99635.34;;;20.60
75428;BMP280;64008;55.612;37.698;2023-08-30T08:20:25;99630.56;;;20.85
75428;BMP280;64008;55.612;37.698;2023-08-30T08:22:51;99637.69;;;20.89
75428;BMP280;64008;55.612;37.698;2023-08-30T08:25:16;99633.56;;;20.83
75428;BMP280;64008;55.612;37.698;2023-08-30T08:27:42;99641.88;;;20.95
75428;BMP280;64008;55.612;37.698;2023-08-30T08:30:08;99648.25;;;21.22
75428;BMP280;64008;55.612;37.698;2023-08-30T08:32:35;99651.19;;;20.62
75428;BMP280;64008;55.612;37.698;2023-08-30T08:35:01;99643.88;;;20.90
75428;BMP280;64008;55.612;37.698;2023-08-30T08:37:28;99636.84;;;20.80
75428;BMP280;64008;55.612;37.698;2023-08-30T08:39:53;99644.78;;;20.85
75428;BMP280;64008;55.612;37.698;2023-08-30T08:42:19;99640.38;;;21.03
75428;BMP280;64008;55.612;37.698;2023-08-30T08:44:51;99645.66;;;20.94
75428;BMP280;64008;55.612;37.698;2023-08-30T08:47:19;99653.50;;;20.91
75428;BMP280;64008;55.612;37.698;2023-08-30T08:49:46;99647.06;;;20.78
75428;BMP280;64008;55.612;37.698;2023-08-30T08:52:15;99652.94;;;20.80
75428;BMP280;64008;55.612;37.698;2023-08-30T08:54:41;99655.66;;;21.16
75428;BMP280;64008;55.612;37.698;2023-08-30T08:57:07;99646.69;;;21.21
75428;BMP280;64008;55.612;37.698;2023-08-30T08:59:33;99646.69;;;21.21
75428;BMP280;64008;55.612;37.698;2023-08-30T09:02:02;99657.59;;;21.25
75428;BMP280;64008;55.612;37.698;2023-08-30T09:04:31;99659.63;;;21.19
75428;BMP280;64008;55.612;37.698;2023-08-30T09:06:58;99665.97;;;21.23
75428;BMP280;64008;55.612;37.698;2023-08-30T09:09:25;99664.13;;;21.46
75428;BMP280;64008;55.612;37.698;2023-08-30T09:11:50;99662.19;;;21.69
75428;BMP280;64008;55.612;37.698;2023-08-30T09:14:16;99674.84;;;22.00
75428;BMP280;64008;55.612;37.698;2023-08-30T09:16:42;99685.41;;;21.88
75428;BMP280;64008;55.612;37.698;2023-08-30T09:19:07;99693.69;;;22.00
75428;BMP280;64008;55.612;37.698;2023-08-30T09:21:35;99698.22;;;22.13
75428;BMP280;64008;55.612;37.698;2023-08-30T09:24:05;99684.16;;;22.25
75428;BMP280;64008;55.612;37.698;2023-08-30T09:26:32;99687.78;;;22.20
75428;BMP280;64008;55.612;37.698;2023-08-30T09:29:08;99692.94;;;22.08
75428;BMP280;64008;55.612;37.698;2023-08-30T09:31:38;99685.84;;;22.12
75428;BMP280;64008;55.612;37.698;2023-08-30T09:34:05;99693.69;;;22.40
75428;BMP280;64008;55.612;37.698;2023-08-30T09:36:34;99701.53;;;22.59
75428;BMP280;64008;55.612;37.698;2023-08-30T09:39:06;99690.44;;;22.12
75428;BMP280;64008;55.612;37.698;2023-08-30T09:41:32;99687.72;;;22.03
75428;BMP280;64008;55.612;37.698;2023-08-30T09:43:59;99679.53;;;22.17
75428;BMP280;64008;55.612;37.698;2023-08-30T09:46:25;99679.53;;;22.17
75428;BMP280;64008;55.612;37.698;2023-08-30T09:48:53;99694.09;;;21.84
75428;BMP280;64008;55.612;37.698;2023-08-30T09:51:20;99702.94;;;22.16
75428;BMP280;64008;55.612;37.698;2023-08-30T09:53:48;99696.06;;;22.01
75428;BMP280;64008;55.612;37.698;2023-08-30T09:56:14;99697.88;;;21.61
75428;BMP280;64008;55.612;37.698;2023-08-30T09:58:40;99694.94;;;21.71
75428;BMP280;64008;55.612;37.698;2023-08-30T10:01:07;99704.09;;;21.93
75428;BMP280;64008;55.612;37.698;2023-08-30T10:03:34;99716.69;;;21.83
75428;BMP280;64008;55.612;37.698;2023-08-30T10:06:01;99715.00;;;21.65
75428;BMP280;64008;55.612;37.698;2023-08-30T10:08:30;99716.59;;;21.66
75428;BMP280;64008;55.612;37.698;2023-08-30T10:10:58;99702.66;;;21.95
75428;BMP280;64008;55.612;37.698;2023-08-30T10:13:25;99700.06;;;21.59
75428;BMP280;64008;55.612;37.698;2023-08-30T10:15:53;99700.06;;;21.59
75428;BMP280;64008;55.612;37.698;2023-08-30T10:18:25;99698.25;;;21.68
75428;BMP280;64008;55.612;37.698;2023-08-30T10:20:54;99704.72;;;21.90
75428;BMP280;64008;55.612;37.698;2023-08-30T10:23:20;99701.19;;;22.12
75428;BMP280;64008;55.612;37.698;2023-08-30T10:25:48;99702.88;;;22.30
75428;BMP280;64008;55.612;37.698;2023-08-30T10:28:15;99704.81;;;22.47
75428;BMP280;64008;55.612;37.698;2023-08-30T10:30:41;99704.69;;;22.61
75428;BMP280;64008;55.612;37.698;2023-08-30T10:33:13;99697.75;;;22.68
75428;BMP280;64008;55.612;37.698;2023-08-30T10:35:49;99700.50;;;23.12
75428;BMP280;64008;55.612;37.698;2023-08-30T10:38:29;99697.47;;;23.22
75428;BMP280;64008;55.612;37.698;2023-08-30T10:41:05;99698.91;;;23.46
75428;BMP280;64008;55.612;37.698;2023-08-30T10:43:34;99692.09;;;23.48
75428;BMP280;64008;55.612;37.698;2023-08-30T10:46:05;99699.97;;;23.71
75428;BMP280;64008;55.612;37.698;2023-08-30T10:48:37;99709.31;;;23.73
75428;BMP280;64008;55.612;37.698;2023-08-30T10:51:06;99714.03;;;23.94
75428;BMP280;64008;55.612;37.698;2023-08-30T10:53:41;99709.00;;;24.22
75428;BMP280;64008;55.612;37.698;2023-08-30T10:56:10;99706.72;;;24.41
75428;BMP280;64008;55.612;37.698;2023-08-30T10:58:45;99706.72;;;24.41
75428;BMP280;64008;55.612;37.698;2023-08-30T11:01:10;99691.88;;;23.71
75428;BMP280;64008;55.612;37.698;2023-08-30T11:03:41;99697.72;;;23.73
75428;BMP280;64008;55.612;37.698;2023-08-30T11:06:07;99702.66;;;24.18
75428;BMP280;64008;55.612;37.698;2023-08-30T11:08:33;99700.16;;;24.42
75428;BMP280;64008;55.612;37.698;2023-08-30T11:11:07;99694.53;;;24.26
75428;BMP280;64008;55.612;37.698;2023-08-30T11:13:34;99698.19;;;24.30
75428;BMP280;64008;55.612;37.698;2023-08-30T11:16:01;99704.50;;;24.85
75428;BMP280;64008;55.612;37.698;2023-08-30T11:18:36;99700.72;;;25.19
75428;BMP280;64008;55.612;37.698;2023-08-30T11:21:02;99697.28;;;25.89
75428;BMP280;64008;55.612;37.698;2023-08-30T11:23:28;99697.84;;;26.07
75428;BMP280;64008;55.612;37.698;2023-08-30T11:25:54;99698.16;;;26.30
75428;BMP280;64008;55.612;37.698;2023-08-30T11:28:26;99706.50;;;26.37
75428;BMP280;64008;55.612;37.698;2023-08-30T11:30:55;99700.25;;;26.61
75428;BMP280;64008;55.612;37.698;2023-08-30T11:33:21;99698.84;;;26.79
75428;BMP280;64008;55.612;37.698;2023-08-30T11:35:49;99690.31;;;26.93
75428;BMP280;64008;55.612;37.698;2023-08-30T11:38:17;99698.22;;;26.98
75428;BMP280;64008;55.612;37.698;2023-08-30T11:40:44;99699.91;;;27.03
75428;BMP280;64008;55.612;37.698;2023-08-30T11:43:10;99694.72;;;26.70
75428;BMP280;64008;55.612;37.698;2023-08-30T11:45:35;99683.28;;;26.76
75428;BMP280;64008;55.612;37.698;2023-08-30T11:48:01;99683.28;;;26.76
75428;BMP280;64008;55.612;37.698;2023-08-30T11:50:27;99682.78;;;26.46
75428;BMP280;64008;55.612;37.698;2023-08-30T11:52:53;99680.91;;;25.61
75428;BMP280;64008;55.612;37.698;2023-08-30T11:55:22;99689.31;;;25.47
75428;BMP280;64008;55.612;37.698;2023-08-30T11:57:49;99689.31;;;25.47
75428;BMP280;64008;55.612;37.698;2023-08-30T12:00:17;99684.22;;;25.45
75428;BMP280;64008;55.612;37.698;2023-08-30T12:02:43;99688.66;;;25.62
75428;BMP280;64008;55.612;37.698;2023-08-30T12:05:11;99694.13;;;25.75
75428;BMP280;64008;55.612;37.698;2023-08-30T12:07:37;99694.13;;;25.75
75428;BMP280;64008;55.612;37.698;2023-08-30T12:10:08;99693.78;;;25.76
75428;BMP280;64008;55.612;37.698;2023-08-30T12:12:34;99692.75;;;25.81
75428;BMP280;64008;55.612;37.698;2023-08-30T12:15:07;99688.59;;;25.83
75428;BMP280;64008;55.612;37.698;2023-08-30T12:17:35;99673.69;;;26.02
75428;BMP280;64008;55.612;37.698;2023-08-30T12:20:01;99673.69;;;26.02
75428;BMP280;64008;55.612;37.698;2023-08-30T12:22:38;99679.00;;;25.74
75428;BMP280;64008;55.612;37.698;2023-08-30T12:25:04;99674.34;;;25.62
75428;BMP280;64008;55.612;37.698;2023-08-30T12:27:29;99674.34;;;25.62
75428;BMP280;64008;55.612;37.698;2023-08-30T12:29:55;99662.88;;;25.89
75428;BMP280;64008;55.612;37.698;2023-08-30T12:32:21;99658.81;;;26.08
75428;BMP280;64008;55.612;37.698;2023-08-30T12:34:46;99660.25;;;26.18
75428;BMP280;64008;55.612;37.698;2023-08-30T12:37:12;99654.75;;;26.14
75428;BMP280;64008;55.612;37.698;2023-08-30T12:39:37;99650.22;;;25.94
75428;BMP280;64008;55.612;37.698;2023-08-30T12:42:03;99650.22;;;25.94
75428;BMP280;64008;55.612;37.698;2023-08-30T12:44:29;99630.63;;;25.84
75428;BMP280;64008;55.612;37.698;2023-08-30T12:46:55;99624.97;;;25.77
75428;BMP280;64008;55.612;37.698;2023-08-30T12:49:20;99630.81;;;25.55
75428;BMP280;64008;55.612;37.698;2023-08-30T12:51:46;99630.81;;;25.55
75428;BMP280;64008;55.612;37.698;2023-08-30T12:54:11;99634.31;;;25.43
75428;BMP280;64008;55.612;37.698;2023-08-30T12:56:37;99634.31;;;25.43
75428;BMP280;64008;55.612;37.698;2023-08-30T12:59:02;99633.06;;;25.40
75428;BMP280;64008;55.612;37.698;2023-08-30T13:01:28;99626.78;;;25.73
75428;BMP280;64008;55.612;37.698;2023-08-30T13:03:53;99616.84;;;25.65
75428;BMP280;64008;55.612;37.698;2023-08-30T13:06:19;99616.84;;;25.65
75428;BMP280;64008;55.612;37.698;2023-08-30T13:08:45;99612.88;;;25.38
75428;BMP280;64008;55.612;37.698;2023-08-30T13:11:10;99609.13;;;25.30
75428;BMP280;64008;55.612;37.698;2023-08-30T13:13:35;99597.81;;;24.83
75428;BMP280;64008;55.612;37.698;2023-08-30T13:16:01;99592.50;;;24.95
75428;BMP280;64008;55.612;37.698;2023-08-30T13:18:26;99591.81;;;24.98
75428;BMP280;64008;55.612;37.698;2023-08-30T13:20:54;99583.19;;;25.17
75428;BMP280;64008;55.612;37.698;2023-08-30T13:23:20;99585.81;;;24.92
75428;BMP280;64008;55.612;37.698;2023-08-30T13:25:45;99575.59;;;24.98
75428;BMP280;64008;55.612;37.698;2023-08-30T13:28:12;99575.59;;;24.98
75428;BMP280;64008;55.612;37.698;2023-08-30T13:30:44;99558.84;;;25.17
75428;BMP280;64008;55.612;37.698;2023-08-30T13:33:10;99558.84;;;25.17
75428;BMP280;64008;55.612;37.698;2023-08-30T13:35:36;99559.44;;;25.47
75428;BMP280;64008;55.612;37.698;2023-08-30T13:38:03;99550.53;;;25.71
75428;BMP280;64008;55.612;37.698;2023-08-30T13:40:29;99548.88;;;25.66
75428;BMP280;64008;55.612;37.698;2023-08-30T13:42:54;99539.13;;;25.90
75428;BMP280;64008;55.612;37.698;2023-08-30T13:45:20;99548.41;;;25.77
75428;BMP280;64008;55.612;37.698;2023-08-30T13:47:45;99549.88;;;25.62
75428;BMP280;64008;55.612;37.698;2023-08-30T13:50:12;99544.09;;;25.88
75428;BMP280;64008;55.612;37.698;2023-08-30T13:52:37;99552.00;;;25.81
75428;BMP280;64008;55.612;37.698;2023-08-30T13:55:03;99544.47;;;26.14
75428;BMP280;64008;55.612;37.698;2023-08-30T13:57:29;99544.47;;;26.14
75428;BMP280;64008;55.612;37.698;2023-08-30T13:59:54;99552.31;;;25.91